Time;durP1;ratioP1;P1;durP2;ratioP2;P2;SDS_P1;SDS_P2;PMS_P1;PMS_P2;Temp;Humidity;BMP_temperature;BMP_pressure;BME280_temperature;BME280_humidity;BME280_pressure;Samples;Min_cycle;Max_cycle;Signal;HPM_P1;HPM_P2
2021/12/14 00:01:24;;;;;;;31.63;13.85;;;-0.30;98.30;;;;;;5041567;28;20013;-78
2021/12/14 00:03:54;;;;;;;38.83;18.25;;;0.90;98.60;;;;;;5041547;28;20017;-77
2021/12/14 00:06:22;;;;;;;49.03;22.67;;;-0.30;98.40;;;;;;5040829;28;20231;-77
2021/12/14 00:09:00;;;;;;;48.60;23.30;;;-0.10;98.30;;;;;;5041458;28;20078;-77
2021/12/14 00:11:50;;;;;;;38.88;18.60;;;0.70;98.80;;;;;;5025728;28;20047;-78
2021/12/14 00:17:27;;;;;;;34.80;16.23;;;-0.20;97.70;;;;;;5046322;28;20773;-79
2021/12/14 00:19:56;;;;;;;52.40;25.23;;;-0.10;97.60;;;;;;5045788;28;20102;-79
2021/12/14 00:22:35;;;;;;;48.58;23.95;;;0.30;98.10;;;;;;5043590;28;20167;-77
2021/12/14 00:25:02;;;;;;;56.45;27.02;;;-0.10;98.10;;;;;;5040881;28;20025;-77
2021/12/14 00:27:29;;;;;;;48.58;24.33;;;0.20;98.20;;;;;;5040837;28;20340;-77
2021/12/14 00:29:58;;;;;;;33.55;16.45;;;-0.10;98.10;;;;;;5040689;28;20099;-78
2021/12/14 00:32:34;;;;;;;29.77;13.68;;;0.00;97.90;;;;;;5040457;28;20024;-77
2021/12/14 00:35:02;;;;;;;20.25;10.88;;;0.40;97.90;;;;;;5040277;28;20408;-77
2021/12/14 00:37:35;;;;;;;20.25;9.18;;;0.00;97.70;;;;;;5022311;28;20021;-78
2021/12/14 00:40:10;;;;;;;18.02;8.90;;;0.00;97.70;;;;;;5040016;28;20110;-77
2021/12/14 00:42:36;;;;;;;19.85;8.75;;;0.00;97.80;;;;;;5040213;28;20397;-77
2021/12/14 00:45:02;;;;;;;18.98;8.63;;;0.00;97.30;;;;;;5039801;28;20326;-77
2021/12/14 00:47:27;;;;;;;17.13;9.30;;;-0.10;97.70;;;;;;5020973;28;20021;-78
2021/12/14 00:49:54;;;;;;;25.88;11.15;;;-0.10;97.80;;;;;;5021031;28;20082;-77
2021/12/14 00:52:21;;;;;;;39.65;17.83;;;-0.10;98.00;;;;;;5039171;28;20021;-78
2021/12/14 00:54:50;;;;;;;34.80;14.93;;;-0.10;98.20;;;;;;5039326;28;20040;-77
2021/12/14 00:57:17;;;;;;;121.00;51.67;;;-0.10;98.20;;;;;;5039875;28;20051;-78
2021/12/14 00:59:45;;;;;;;84.25;38.38;;;0.10;97.80;;;;;;5021568;28;20067;-77
2021/12/14 01:02:17;;;;;;;59.00;26.48;;;-0.20;97.60;;;;;;5039290;28;20373;-78
2021/12/14 01:04:53;;;;;;;48.15;22.85;;;-0.10;97.60;;;;;;5021652;28;20079;-78
2021/12/14 01:07:20;;;;;;;;;;;2.10;98.00;;;;;;5041086;28;20056;-78
2021/12/14 01:09:52;;;;;;;42.20;21.65;;;-0.20;97.70;;;;;;5043782;28;19905;-78
2021/12/14 01:12:34;;;;;;;57.67;29.02;;;-0.20;97.60;;;;;;5043803;28;20698;-78
2021/12/14 01:15:28;;;;;;;41.67;22.58;;;-0.30;97.90;;;;;;5043576;28;20029;-80
2021/12/14 01:18:28;;;;;;;32.55;16.70;;;-0.30;98.10;;;;;;5044081;28;20116;-78
2021/12/14 01:21:00;;;;;;;25.20;13.88;;;-0.20;98.40;;;;;;5043818;28;20618;-78
2021/12/14 01:23:33;;;;;;;19.10;11.52;;;-0.20;98.70;;;;;;5044225;28;20017;-78
2021/12/14 01:26:06;;;;;;;11.18;6.78;;;0.00;98.90;;;;;;5043433;28;20110;-77
2021/12/14 01:28:35;;;;;;;27.52;15.77;;;-0.20;98.90;;;;;;5025862;28;20024;-78
2021/12/14 01:31:26;;;;;;;13.18;7.35;;;-0.20;98.90;;;;;;5043374;28;20044;-78
2021/12/14 01:33:57;;;;;;;8.95;4.57;;;-0.10;98.90;;;;;;5043407;28;20021;-77
2021/12/14 01:36:36;;;;;;;9.60;5.45;;;0.00;98.60;;;;;;5043481;28;20078;-78
2021/12/14 01:41:39;;;;;;;8.43;4.97;;;0.00;98.30;;;;;;5043205;28;20018;-77
2021/12/14 01:44:06;;;;;;;9.70;5.07;;;0.00;98.40;;;;;;5042743;28;20641;-78
2021/12/14 01:46:39;;;;;;;7.85;5.25;;;0.00;98.20;;;;;;5043776;28;20051;-77
2021/12/14 01:49:12;;;;;;;7.85;4.82;;;1.70;98.60;;;;;;5043831;28;20056;-76
2021/12/14 01:51:42;;;;;;;8.93;5.07;;;0.10;97.70;;;;;;5026270;28;20059;-78
2021/12/14 01:54:11;;;;;;;8.85;5.07;;;0.20;97.70;;;;;;5042054;28;20583;-78
2021/12/14 01:56:38;;;;;;;7.97;3.88;;;0.20;97.70;;;;;;5041638;28;20025;-78
2021/12/14 01:59:14;;;;;;;7.85;4.53;;;0.20;97.60;;;;;;5043023;28;20135;-78
2021/12/14 02:01:57;;;;;;;9.10;4.65;;;0.40;97.70;;;;;;5042348;28;20021;-78
2021/12/14 02:04:26;;;;;;;9.27;5.25;;;0.30;97.70;;;;;;5042560;28;20249;-78
2021/12/14 02:07:02;;;;;;;9.57;5.50;;;-1.30;97.40;;;;;;5043632;28;20369;-78
2021/12/14 02:09:31;;;;;;;14.43;7.28;;;0.40;97.70;;;;;;5044005;28;20075;-78
2021/12/14 02:12:08;;;;;;;12.07;6.95;;;0.50;97.70;;;;;;5043450;28;20116;-77
2021/12/14 02:14:33;;;;;;;23.48;10.85;;;0.40;97.90;;;;;;5043434;28;20021;-77
2021/12/14 02:17:03;;;;;;;22.08;11.70;;;0.40;98.00;;;;;;5043529;28;20136;-77
2021/12/14 02:19:32;;;;;;;16.23;8.77;;;0.40;98.20;;;;;;5042996;28;20273;-78
2021/12/14 02:21:59;;;;;;;17.30;9.10;;;0.40;98.00;;;;;;5044029;28;20021;-77
2021/12/14 02:24:28;;;;;;;13.25;7.95;;;0.40;98.00;;;;;;5043474;28;20118;-77
2021/12/14 02:26:54;;;;;;;12.38;7.72;;;0.40;98.20;;;;;;5043943;28;20522;-78
2021/12/14 02:29:31;;;;;;;13.75;7.53;;;0.40;98.40;;;;;;5049137;28;20017;-78
2021/12/14 02:32:07;;;;;;;11.80;6.80;;;0.90;98.40;;;;;;5039992;28;20029;-78
2021/12/14 02:34:39;;;;;;;14.18;7.35;;;0.50;98.30;;;;;;5036641;28;20723;-77
2021/12/14 02:37:05;;;;;;;12.82;7.00;;;0.50;97.90;;;;;;5026536;28;20649;-77
2021/12/14 02:42:09;;;;;;;15.60;7.25;;;0.50;97.90;;;;;;5042795;28;20025;-77
2021/12/14 02:44:36;;;;;;;16.95;8.30;;;0.50;97.90;;;;;;5041806;28;20095;-77
2021/12/14 02:47:08;;;;;;;22.08;12.05;;;0.50;97.90;;;;;;5041695;28;20087;-77
2021/12/14 02:49:37;;;;;;;19.27;10.30;;;0.50;97.80;;;;;;5041894;28;20214;-77
2021/12/14 02:52:24;;;;;;;15.75;8.95;;;0.50;98.10;;;;;;5042304;28;20021;-77
2021/12/14 02:54:50;;;;;;;;;;;0.60;98.20;;;;;;5042708;28;20124;-78
2021/12/14 02:57:26;;;;;;;13.00;7.43;;;1.60;98.30;;;;;;5042328;28;20398;-78
2021/12/14 02:59:54;;;;;;;14.45;7.75;;;0.50;98.10;;;;;;5040825;28;20036;-78
2021/12/14 03:02:32;;;;;;;15.52;7.97;;;1.70;98.20;;;;;;5022469;28;20043;-78
2021/12/14 03:05:10;;;;;;;16.60;8.45;;;2.00;98.30;;;;;;5039809;28;20033;-79
2021/12/14 03:07:47;;;;;;;13.95;7.88;;;0.60;98.30;;;;;;5040022;28;20044;-77
2021/12/14 03:12:49;;;;;;;11.20;6.93;;;0.60;98.10;;;;;;5039753;28;20495;-78
2021/12/14 03:15:25;;;;;;;10.82;7.00;;;0.60;98.10;;;;;;5039928;28;20462;-77
2021/12/14 03:17:55;;;;;;;9.88;5.68;;;0.60;98.20;;;;;;5039798;28;20052;-78
2021/12/14 03:20:49;;;;;;;9.23;5.30;;;0.60;98.10;;;;;;5039636;28;20519;-78
2021/12/14 03:23:18;;;;;;;8.70;5.22;;;0.60;97.90;;;;;;5018857;28;20408;-77
2021/12/14 03:25:48;;;;;;;9.90;5.15;;;0.60;98.10;;;;;;5041012;28;20075;-77
2021/12/14 03:28:16;;;;;;;116.18;40.05;;;0.70;98.30;;;;;;5039504;28;20017;-78
2021/12/14 03:31:11;;;;;;;106.68;34.83;;;0.60;98.00;;;;;;5038869;28;20507;-78
2021/12/14 03:33:42;;;;;;;40.22;16.15;;;0.70;98.30;;;;;;5028517;28;20503;-78
2021/12/14 03:36:20;;;;;;;23.85;9.95;;;0.70;98.30;;;;;;5039288;28;20094;-77
2021/12/14 03:39:07;;;;;;;20.58;9.30;;;2.20;98.50;;;;;;5039609;28;20387;-78
2021/12/14 03:41:35;;;;;;;;;;;0.80;98.30;;;;;;5039633;28;20025;-77
2021/12/14 03:44:06;;;;;;;20.85;9.13;;;0.80;98.30;;;;;;5039563;28;20422;-77
2021/12/14 03:46:41;;;;;;;12.27;6.95;;;0.90;98.10;;;;;;5039204;28;20257;-78
2021/12/14 03:49:08;;;;;;;11.10;5.90;;;1.40;98.40;;;;;;5039435;28;20350;-78
2021/12/14 03:51:35;;;;;;;10.00;5.88;;;0.90;97.90;;;;;;5021504;28;20112;-77
2021/12/14 03:54:00;;;;;;;10.57;6.28;;;0.80;98.30;;;;;;5039443;28;20051;-78
2021/12/14 03:56:27;;;;;;;10.65;6.53;;;0.70;98.20;;;;;;5039560;28;20021;-77
2021/12/14 03:58:54;;;;;;;23.60;11.90;;;0.70;98.20;;;;;;5039572;28;20024;-78
2021/12/14 04:01:28;;;;;;;16.50;9.73;;;0.80;98.10;;;;;;5039199;28;20480;-77
2021/12/14 04:04:02;;;;;;;22.27;11.20;;;0.70;98.30;;;;;;5039103;28;20272;-78
2021/12/14 04:06:28;;;;;;;15.00;9.20;;;0.70;98.20;;;;;;5039173;28;20040;-77
2021/12/14 04:08:55;;;;;;;15.07;8.88;;;0.80;98.50;;;;;;5038634;28;20572;-77
2021/12/14 04:11:21;;;;;;;12.15;7.55;;;1.30;98.30;;;;;;5020246;28;20353;-78
2021/12/14 04:13:53;;;;;;;13.18;8.32;;;-1.90;97.50;;;;;;5039360;28;20020;-77
2021/12/14 04:16:23;;;;;;;22.92;11.18;;;0.90;98.20;;;;;;5038729;28;20021;-78
2021/12/14 04:18:50;;;;;;;17.10;8.38;;;0.90;98.40;;;;;;5039093;28;20534;-78
2021/12/14 04:21:16;;;;;;;12.52;7.63;;;1.60;98.50;;;;;;5039467;28;20039;-78
2021/12/14 04:23:45;;;;;;;9.52;5.80;;;0.80;98.40;;;;;;5038917;28;20082;-78
2021/12/14 04:26:13;;;;;;;8.85;5.47;;;0.70;98.30;;;;;;5039095;28;20514;-78
2021/12/14 04:28:52;;;;;;;10.45;6.05;;;0.70;98.40;;;;;;5021386;28;20103;-78
2021/12/14 04:31:19;;;;;;;15.13;7.57;;;0.60;98.60;;;;;;5038979;28;20340;-77
2021/12/14 04:33:46;;;;;;;13.98;8.02;;;0.60;98.80;;;;;;5039333;28;20013;-77
2021/12/14 04:36:16;;;;;;;15.93;8.07;;;0.60;98.90;;;;;;5039330;28;20027;-77
2021/12/14 04:38:50;;;;;;;16.77;9.00;;;0.60;98.90;;;;;;5038986;28;20483;-77
2021/12/14 04:52:22;;;;;;;27.77;15.55;;;0.60;98.80;;;;;;5039810;28;20569;-78
2021/12/14 04:54:48;;;;;;;31.27;17.08;;;0.50;99.00;;;;;;5042755;28;20013;-78
2021/12/14 04:57:26;;;;;;;35.85;19.83;;;0.50;98.90;;;;;;5044983;28;20103;-78
2021/12/14 04:59:55;;;;;;;36.20;19.42;;;0.50;99.10;;;;;;5044764;28;20475;-77
2021/12/14 05:02:32;;;;;;;35.10;18.75;;;0.50;99.20;;;;;;5043108;28;20135;-76
2021/12/14 05:04:59;;;;;;;33.63;17.98;;;1.40;99.30;;;;;;5039807;28;20041;-77
2021/12/14 05:10:01;;;;;;;33.05;17.33;;;0.60;99.10;;;;;;5022199;28;20041;-78
2021/12/14 05:12:31;;;;;;;33.08;16.60;;;1.10;99.30;;;;;;5039050;28;20057;-79
2021/12/14 05:15:01;;;;;;;30.15;16.85;;;0.60;99.10;;;;;;5020661;28;20055;-77
2021/12/14 05:17:32;;;;;;;27.00;14.43;;;0.60;99.10;;;;;;5038625;28;20037;-78
2021/12/14 05:19:59;;;;;;;30.02;14.70;;;0.60;99.20;;;;;;5019832;28;20471;-78
2021/12/14 05:22:31;;;;;;;28.77;14.93;;;0.60;99.20;;;;;;5037552;28;20206;-78
2021/12/14 05:25:03;;;;;;;38.05;17.90;;;0.60;99.30;;;;;;5037844;28;20025;-77
2021/12/14 05:27:40;;;;;;;51.42;25.80;;;0.60;99.20;;;;;;5038132;28;20022;-78
2021/12/14 05:30:16;;;;;;;62.03;28.00;;;0.60;99.30;;;;;;5037951;28;20056;-76
2021/12/14 05:32:43;;;;;;;63.13;29.13;;;0.70;99.30;;;;;;5037789;28;20040;-78
2021/12/14 05:35:12;;;;;;;73.70;34.80;;;0.60;99.20;;;;;;5038010;28;20689;-78
2021/12/14 05:37:46;;;;;;;75.00;34.83;;;0.60;99.10;;;;;;5043371;28;20017;-78
2021/12/14 05:40:23;;;;;;;68.65;33.47;;;0.60;99.10;;;;;;5044247;28;20052;-78
2021/12/14 05:43:06;;;;;;;60.83;31.23;;;1.20;99.10;;;;;;5044452;28;20053;-79
2021/12/14 05:45:33;;;;;;;53.83;26.35;;;0.70;98.80;;;;;;5045747;28;20515;-78
2021/12/14 05:47:59;;;;;;;36.83;18.38;;;0.60;98.60;;;;;;5038394;28;20017;-77
2021/12/14 05:50:46;;;;;;;29.73;16.30;;;0.60;98.60;;;;;;5038295;28;20514;-78
2021/12/14 05:53:31;;;;;;;27.00;15.73;;;0.60;98.90;;;;;;5038960;28;20025;-76
2021/12/14 05:56:01;;;;;;;32.90;17.27;;;0.60;99.00;;;;;;5041696;28;20333;-75
2021/12/14 05:58:28;;;;;;;36.92;21.02;;;0.60;99.10;;;;;;5041603;28;20021;-76
2021/12/14 06:01:04;;;;;;;43.30;23.73;;;1.30;99.10;;;;;;5041220;28;20025;-76
2021/12/14 06:03:41;;;;;;;48.55;26.95;;;1.10;99.10;;;;;;5042009;28;20506;-77
2021/12/14 06:06:17;;;;;;;55.20;28.35;;;0.60;98.90;;;;;;5042253;28;20124;-77
2021/12/14 06:08:43;;;;;;;52.33;27.55;;;0.60;98.90;;;;;;5041862;28;20021;-78
2021/12/14 06:11:19;;;;;;;55.25;28.60;;;0.60;98.80;;;;;;5041647;28;20033;-78
2021/12/14 06:13:45;;;;;;;65.20;33.50;;;0.60;98.80;;;;;;5041263;28;20032;-77
2021/12/14 06:16:31;;;;;;;59.67;29.92;;;0.60;98.90;;;;;;5041858;28;20020;-78
2021/12/14 06:19:22;;;;;;;56.88;29.35;;;0.60;98.80;;;;;;5041559;28;20174;-78
2021/12/14 06:21:55;;;;;;;51.88;26.77;;;0.60;99.00;;;;;;5041494;28;20329;-77
2021/12/14 06:24:24;;;;;;;50.03;25.85;;;0.60;98.90;;;;;;5041356;28;20021;-77
2021/12/14 06:26:52;;;;;;;39.92;22.83;;;0.60;98.80;;;;;;5041859;28;20029;-77
2021/12/14 06:29:25;;;;;;;36.78;20.83;;;0.50;98.80;;;;;;5042284;28;20036;-78
2021/12/14 06:31:53;;;;;;;46.58;22.67;;;0.50;98.90;;;;;;5041809;28;20021;-77
2021/12/14 06:34:21;;;;;;;46.05;23.70;;;0.50;99.00;;;;;;5041314;28;20257;-78
2021/12/14 06:36:52;;;;;;;42.38;21.75;;;0.50;99.00;;;;;;5041514;28;20097;-77
2021/12/14 06:39:21;;;;;;;49.00;24.35;;;0.50;99.00;;;;;;5041136;28;20466;-79
2021/12/14 06:41:46;;;;;;;61.28;27.52;;;0.50;99.20;;;;;;5041473;28;20024;-77
2021/12/14 06:44:12;;;;;;;80.72;36.97;;;0.50;98.70;;;;;;5023235;28;20032;-77
2021/12/14 06:46:40;;;;;;;61.00;30.33;;;0.70;98.80;;;;;;5040590;28;20064;-79
2021/12/14 06:49:09;;;;;;;50.17;27.33;;;0.50;98.50;;;;;;5040803;28;20037;-78
2021/12/14 06:51:39;;;;;;;56.78;28.67;;;0.60;98.40;;;;;;5028916;28;20060;-78
2021/12/14 06:54:15;;;;;;;68.43;34.20;;;0.60;98.50;;;;;;5041169;28;20538;-78
2021/12/14 06:56:41;;;;;;;64.25;32.97;;;0.30;98.30;;;;;;5040628;28;20048;-78
2021/12/14 06:59:14;;;;;;;61.20;31.23;;;1.30;98.70;;;;;;5040662;28;20025;-78
2021/12/14 07:01:43;;;;;;;56.58;30.92;;;0.80;98.60;;;;;;5041272;28;20048;-78
2021/12/14 07:04:16;;;;;;;61.63;29.88;;;0.80;98.50;;;;;;5040704;28;20028;-77
2021/12/14 07:06:46;;;;;;;62.88;29.83;;;0.90;98.40;;;;;;5040600;28;20484;-78
2021/12/14 07:09:24;;;;;;;62.53;30.70;;;0.90;98.20;;;;;;5040935;28;20021;-77
2021/12/14 07:12:06;;;;;;;79.15;38.95;;;1.10;97.90;;;;;;5022535;28;20120;-78
2021/12/14 07:14:32;;;;;;;96.40;45.85;;;1.10;97.80;;;;;;5041363;28;20415;-78
2021/12/14 07:17:02;;;;;;;89.88;44.67;;;1.40;98.20;;;;;;5041470;28;20025;-79
2021/12/14 07:20:09;;;;;;;94.10;45.95;;;0.70;97.50;;;;;;5040651;28;20090;-77
2021/12/14 07:22:53;;;;;;;54.58;27.48;;;1.40;97.50;;;;;;5039466;28;20229;-77
2021/12/14 07:25:21;;;;;;;38.67;20.60;;;1.90;97.50;;;;;;5040040;28;20025;-78
2021/12/14 07:28:08;;;;;;;47.50;21.00;;;1.50;97.20;;;;;;5040186;28;20017;-79
2021/12/14 07:30:34;;;;;;;;;;;1.60;97.30;;;;;;5039190;28;20156;-78
2021/12/14 07:33:02;;;;;;;47.23;23.03;;;1.60;97.40;;;;;;5041074;28;20003;-77
2021/12/14 07:35:47;;;;;;;37.67;19.55;;;1.60;97.20;;;;;;5023282;28;20203;-78
2021/12/14 07:38:16;;;;;;;42.35;23.55;;;1.60;97.00;;;;;;5041924;28;20032;-78
2021/12/14 07:40:47;;;;;;;45.03;25.10;;;1.60;96.90;;;;;;5041100;28;20056;-78
2021/12/14 07:43:22;;;;;;;47.67;27.55;;;1.70;97.00;;;;;;5041030;28;20239;-78
2021/12/14 07:45:51;;;;;;;48.53;25.67;;;1.60;97.20;;;;;;5023058;28;20132;-78
2021/12/14 07:48:21;;;;;;;53.50;27.70;;;1.60;97.30;;;;;;5041023;28;20033;-78
2021/12/14 07:50:55;;;;;;;48.92;25.25;;;1.70;97.30;;;;;;5040834;28;20289;-78
2021/12/14 07:53:34;;;;;;;59.83;28.73;;;1.70;97.20;;;;;;5040264;28;20021;-79
2021/12/14 07:56:01;;;;;;;56.65;29.20;;;1.80;97.00;;;;;;5022574;28;20531;-78
2021/12/14 07:58:46;;;;;;;55.13;29.15;;;1.80;96.70;;;;;;5041559;28;20024;-78
2021/12/14 08:01:13;;;;;;;57.83;30.13;;;1.90;96.60;;;;;;5042932;28;20028;-78
2021/12/14 08:03:39;;;;;;;116.13;51.47;;;2.00;96.80;;;;;;5042554;28;20017;-79
2021/12/14 08:06:12;;;;;;;87.78;42.58;;;2.00;96.50;;;;;;5042778;28;20194;-79
2021/12/14 08:08:44;;;;;;;76.00;35.15;;;2.00;96.50;;;;;;5044484;28;20048;-78
2021/12/14 08:13:53;;;;;;;59.83;30.30;;;2.00;96.70;;;;;;5049604;28;20450;-78
2021/12/14 08:16:21;;;;;;;58.78;31.60;;;2.00;96.70;;;;;;5049162;28;20479;-79
2021/12/14 08:18:47;;;;;;;60.85;32.78;;;2.00;96.60;;;;;;5047342;28;20045;-78
2021/12/14 08:21:21;;;;;;;59.33;31.85;;;2.20;96.50;;;;;;5044498;28;20021;-78
2021/12/14 08:23:53;;;;;;;63.95;33.50;;;2.30;96.10;;;;;;5042480;28;20442;-78
2021/12/14 08:26:33;;;;;;;59.05;31.40;;;2.30;95.80;;;;;;5025115;28;20302;-77
2021/12/14 08:29:11;;;;;;;60.47;30.40;;;2.50;95.60;;;;;;5042345;28;20431;-80
2021/12/14 08:32:11;;;;;;;57.75;31.10;;;2.50;95.60;;;;;;5026356;28;20029;-78
2021/12/14 08:34:44;;;;;;;65.32;33.58;;;2.60;95.40;;;;;;4961137;28;20103;-78
2021/12/14 08:37:34;;;;;;;61.63;33.78;;;2.60;95.30;;;;;;4963315;28;20031;-81
2021/12/14 08:40:18;;;;;;;63.45;35.85;;;2.70;95.40;;;;;;4962033;28;20324;-78
2021/12/14 08:43:06;;;;;;;60.03;33.55;;;2.70;95.20;;;;;;4964312;28;20086;-75
2021/12/14 08:45:54;;;;;;;63.25;34.10;;;2.80;95.10;;;;;;4962860;28;20046;-78
2021/12/14 08:48:31;;;;;;;77.50;42.33;;;2.90;95.10;;;;;;4963316;28;20027;-78
2021/12/14 08:51:01;;;;;;;83.72;44.65;;;3.00;94.80;;;;;;4945917;28;20023;-79
2021/12/14 08:53:32;;;;;;;70.85;37.97;;;3.10;94.70;;;;;;4961993;28;20019;-77
2021/12/14 08:56:01;;;;;;;60.45;32.92;;;3.20;94.30;;;;;;4962763;28;20035;-77
2021/12/14 08:58:29;;;;;;;59.95;33.67;;;3.30;94.30;;;;;;4963353;28;20050;-78
2021/12/14 09:01:02;;;;;;;73.32;37.65;;;3.40;93.90;;;;;;4966878;28;20023;-77
2021/12/14 09:03:34;;;;;;;79.78;41.83;;;3.40;93.60;;;;;;4964182;28;20379;-77
2021/12/14 09:06:07;;;;;;;86.85;43.38;;;3.60;93.40;;;;;;4946403;28;20047;-77
2021/12/14 09:08:34;;;;;;;83.80;43.15;;;7.30;94.30;;;;;;4961391;28;20330;-76
2021/12/14 09:11:02;;;;;;;71.25;38.38;;;3.70;93.00;;;;;;4982807;28;20542;-75
2021/12/14 09:13:28;;;;;;;60.90;33.60;;;3.90;93.00;;;;;;5021661;28;20032;-77
2021/12/14 09:16:07;;;;;;;59.97;30.40;;;4.00;92.50;;;;;;5023979;28;20093;-78
2021/12/14 09:18:41;;;;;;;51.08;27.80;;;4.00;92.50;;;;;;5028381;28;20084;-79
2021/12/14 09:21:14;;;;;;;54.10;26.73;;;4.10;92.00;;;;;;5031543;28;20028;-80
2021/12/14 09:23:44;;;;;;;49.58;26.73;;;4.00;92.00;;;;;;5031815;28;20010;-77
2021/12/14 09:26:18;;;;;;;52.58;29.05;;;3.90;92.50;;;;;;5030104;28;20116;-80
2021/12/14 09:28:45;;;;;;;48.78;28.25;;;4.10;92.40;;;;;;5024867;28;20036;-78
2021/12/14 09:31:16;;;;;;;55.15;29.88;;;4.20;92.30;;;;;;5030873;28;20519;-78
2021/12/14 09:33:42;;;;;;;51.40;28.35;;;4.30;92.20;;;;;;5034143;28;20076;-78
2021/12/14 09:36:13;;;;;;;50.03;29.02;;;4.40;91.50;;;;;;5012959;28;20109;-77
2021/12/14 09:38:47;;;;;;;53.38;29.13;;;4.40;91.40;;;;;;5010969;28;20029;-76
2021/12/14 09:41:22;;;;;;;54.03;28.50;;;4.50;91.20;;;;;;5046349;28;20013;-77
2021/12/14 09:43:49;;;;;;;51.33;27.88;;;4.40;91.10;;;;;;5028029;28;20025;-76
2021/12/14 09:46:18;;;;;;;49.15;27.80;;;4.50;91.10;;;;;;5042925;28;20040;-78
2021/12/14 09:49:01;;;;;;;57.03;29.63;;;4.60;91.00;;;;;;5042275;28;20063;-76
2021/12/14 09:51:31;;;;;;;55.25;29.50;;;4.70;91.00;;;;;;5047316;28;20013;-77
2021/12/14 09:54:01;;;;;;;59.95;32.78;;;4.80;90.80;;;;;;5044673;28;20687;-78
2021/12/14 09:56:31;;;;;;;68.57;34.70;;;4.90;90.60;;;;;;5043267;28;20024;-76
2021/12/14 09:59:00;;;;;;;180.38;65.60;;;5.10;90.30;;;;;;5044117;28;20025;-76
2021/12/14 10:01:30;;;;;;;203.23;73.55;;;5.10;90.30;;;;;;5042928;28;20021;-77
2021/12/14 10:04:00;;;;;;;225.52;76.97;;;5.10;90.70;;;;;;5044282;28;20091;-77
2021/12/14 10:06:30;;;;;;;97.03;42.83;;;5.20;90.40;;;;;;5055010;28;20037;-79
2021/12/14 10:09:05;;;;;;;51.60;30.20;;;5.30;90.00;;;;;;5030548;28;20017;-77
2021/12/14 10:11:59;;;;;;;58.75;30.80;;;5.10;88.90;;;;;;5052428;28;20025;-78
2021/12/14 10:14:35;;;;;;;50.60;27.83;;;5.10;88.80;;;;;;5051577;28;20691;-77
2021/12/14 10:17:08;;;;;;;44.42;24.98;;;5.10;88.90;;;;;;5046023;28;20024;-77
2021/12/14 10:19:38;;;;;;;46.10;27.42;;;5.00;88.80;;;;;;5044081;28;20112;-75
2021/12/14 10:22:10;;;;;;;48.45;27.30;;;5.00;88.80;;;;;;5046618;28;20017;-80
2021/12/14 10:24:39;;;;;;;48.47;26.75;;;5.10;89.30;;;;;;5050336;28;20127;-76
2021/12/14 10:27:13;;;;;;;52.28;26.35;;;5.30;88.10;;;;;;5028957;28;20029;-78
2021/12/14 10:29:41;;;;;;;42.25;24.45;;;5.70;87.50;;;;;;5047254;28;20013;-79
2021/12/14 10:32:16;;;;;;;56.83;29.55;;;6.50;86.70;;;;;;5043534;28;20079;-80
2021/12/14 10:34:49;;;;;;;102.72;46.65;;;6.60;84.60;;;;;;5045946;28;20022;-78
2021/12/14 10:37:38;;;;;;;68.75;37.85;;;6.90;83.10;;;;;;5044303;28;20091;-78
2021/12/14 10:43:05;;;;;;;62.72;36.50;;;7.40;81.40;;;;;;5043429;28;20295;-77
2021/12/14 10:45:31;;;;;;;58.72;34.47;;;7.70;79.90;;;;;;5028026;28;20043;-77
2021/12/14 10:47:57;;;;;;;59.92;34.72;;;8.00;77.40;;;;;;5042514;28;20096;-79
2021/12/14 10:50:27;;;;;;;61.20;37.03;;;8.40;76.90;;;;;;5042226;28;20021;-81
2021/12/14 10:52:53;;;;;;;64.20;36.08;;;8.50;74.80;;;;;;5042087;28;20001;-80
2021/12/14 10:55:25;;;;;;;61.30;35.50;;;8.80;73.70;;;;;;5041726;28;20105;-78
2021/12/14 10:57:52;;;;;;;75.00;40.65;;;9.00;74.00;;;;;;5047967;28;20013;-77
2021/12/14 11:00:29;;;;;;;58.67;35.28;;;9.30;71.90;;;;;;5042190;28;20032;-78
2021/12/14 11:03:00;;;;;;;62.00;36.15;;;9.40;69.60;;;;;;5044266;28;20017;-79
2021/12/14 11:05:27;;;;;;;263.92;107.65;;;9.40;70.00;;;;;;5025382;28;20044;-77
2021/12/14 11:07:53;;;;;;;122.13;52.40;;;9.50;69.10;;;;;;5041960;28;20151;-80
2021/12/14 11:10:27;;;;;;;45.13;25.27;;;9.60;69.70;;;;;;5042006;28;20112;-77
2021/12/14 11:13:07;;;;;;;48.30;27.45;;;9.60;68.20;;;;;;5044834;28;20088;-81
2021/12/14 11:15:41;;;;;;;41.17;23.55;;;9.10;68.30;;;;;;5044805;28;20048;-78
2021/12/14 11:18:15;;;;;;;53.45;30.83;;;9.00;70.50;;;;;;5026582;28;20032;-76
2021/12/14 11:21:02;;;;;;;62.67;36.05;;;8.90;70.70;;;;;;5044621;28;20017;-74
2021/12/14 11:23:32;;;;;;;63.15;37.65;;;8.40;71.80;;;;;;5048485;28;20025;-77
2021/12/14 11:26:07;;;;;;;63.88;38.10;;;8.40;71.70;;;;;;5053897;28;20082;-82
2021/12/14 11:28:39;;;;;;;241.45;102.72;;;8.20;73.40;;;;;;5049324;28;20013;-81
2021/12/14 11:31:16;;;;;;;145.88;65.28;;;7.90;75.90;;;;;;5050434;28;20047;-79
2021/12/14 11:33:53;;;;;;;41.90;25.42;;;7.70;76.00;;;;;;5049327;28;20112;-77
2021/12/14 11:36:26;;;;;;;41.60;24.90;;;7.20;77.50;;;;;;5063930;28;20059;-80
2021/12/14 11:39:24;;;;;;;35.70;22.17;;;7.10;78.50;;;;;;5064686;28;20041;-81
2021/12/14 11:41:58;;;;;;;38.08;22.15;;;7.00;79.70;;;;;;5045911;28;20013;-80
2021/12/14 11:45:04;;;;;;;36.88;20.83;;;6.80;80.70;;;;;;5064041;28;20009;-77
2021/12/14 11:50:24;;;;;;;39.72;22.23;;;6.80;79.70;;;;;;5043774;28;20117;-81
2021/12/14 11:53:02;;;;;;;36.60;22.02;;;6.80;80.70;;;;;;5055755;28;20479;-80
2021/12/14 11:55:39;;;;;;;34.55;20.17;;;6.50;80.30;;;;;;5052783;28;20028;-79
2021/12/14 11:58:30;;;;;;;48.47;25.27;;;6.20;83.10;;;;;;5052421;28;20253;-77
2021/12/14 12:01:25;;;;;;;32.17;19.75;;;6.40;82.50;;;;;;5051567;28;20036;-79
2021/12/14 12:04:03;;;;;;;33.00;18.63;;;5.60;81.20;;;;;;5053859;28;20028;-78
2021/12/14 12:06:46;;;;;;;34.92;18.35;;;6.50;82.00;;;;;;5037403;28;20036;-79
2021/12/14 12:12:05;;;;;;;33.97;18.58;;;6.70;80.40;;;;;;5055276;28;20025;-79
2021/12/14 12:14:49;;;;;;;29.75;16.45;;;6.70;79.60;;;;;;5051281;28;20491;-81
2021/12/14 12:17:27;;;;;;;28.90;15.93;;;6.60;78.80;;;;;;5063592;28;20033;-77
2021/12/14 12:20:17;;;;;;;28.92;14.52;;;6.50;78.30;;;;;;5056627;28;20029;-78
2021/12/14 12:23:03;;;;;;;23.70;12.82;;;6.60;76.60;;;;;;5064369;28;20032;-77
2021/12/14 12:25:47;;;;;;;26.48;14.73;;;6.70;76.60;;;;;;5062316;28;20400;-78
2021/12/14 12:28:38;;;;;;;43.33;21.33;;;6.90;77.30;;;;;;5043889;28;20025;-82
2021/12/14 12:31:12;;;;;;;49.17;26.13;;;6.30;80.70;;;;;;5065441;28;20025;-79
2021/12/14 12:33:40;;;;;;;38.92;20.90;;;6.50;81.70;;;;;;5064528;28;20064;-76
2021/12/14 12:36:35;;;;;;;35.97;19.35;;;6.60;80.60;;;;;;5067257;28;20028;-76
2021/12/14 12:39:11;;;;;;;37.83;20.83;;;6.80;80.70;;;;;;5060366;28;20041;-77
2021/12/14 12:41:48;;;;;;;42.92;23.10;;;6.80;80.00;;;;;;5055406;28;20115;-77
2021/12/14 12:44:42;;;;;;;39.95;20.70;;;6.90;81.20;;;;;;5058348;28;20029;-78
2021/12/14 12:47:20;;;;;;;40.70;23.33;;;7.00;81.00;;;;;;5058973;28;20025;-78
2021/12/14 12:49:51;;;;;;;36.63;19.40;;;6.70;81.10;;;;;;5057332;28;20056;-80
2021/12/14 12:52:37;;;;;;;35.95;20.20;;;4.90;79.40;;;;;;5053638;28;20251;-79
2021/12/14 12:55:13;;;;;;;41.72;23.10;;;6.40;81.70;;;;;;5051827;28;20073;-81
2021/12/14 12:57:55;;;;;;;39.85;22.02;;;6.50;83.30;;;;;;5055807;28;20017;-78
2021/12/14 13:00:47;;;;;;;40.50;22.38;;;6.10;82.70;;;;;;5053121;28;20078;-81
2021/12/14 13:03:31;;;;;;;38.22;20.38;;;6.00;84.40;;;;;;5057536;28;20483;-78
2021/12/14 13:06:07;;;;;;;36.42;20.42;;;5.80;83.40;;;;;;5053938;28;20029;-78
2021/12/14 13:08:41;;;;;;;37.03;20.67;;;5.60;84.60;;;;;;5061629;28;20700;-77
2021/12/14 13:11:13;;;;;;;37.10;19.63;;;5.50;85.20;;;;;;5044358;28;20033;-80
2021/12/14 13:13:45;;;;;;;35.75;19.35;;;5.40;85.30;;;;;;5059657;28;20037;-77
2021/12/14 13:16:34;;;;;;;38.97;21.15;;;5.40;85.90;;;;;;5057587;28;20045;-78
2021/12/14 13:19:13;;;;;;;35.00;18.92;;;5.40;86.70;;;;;;4975674;28;20250;-78
2021/12/14 13:21:59;;;;;;;38.60;21.38;;;5.50;86.40;;;;;;4957799;28;20031;-80
2021/12/14 13:24:35;;;;;;;47.70;27.63;;;5.50;86.60;;;;;;4976013;28;20034;-76
2021/12/14 13:27:24;;;;;;;56.20;31.05;;;5.50;86.00;;;;;;4980216;28;20396;-80
2021/12/14 13:29:58;;;;;;;36.08;19.65;;;5.50;86.30;;;;;;4966763;28;20023;-80
2021/12/14 13:32:26;;;;;;;36.10;19.23;;;5.50;85.30;;;;;;4966783;28;20063;-78
2021/12/14 13:35:19;;;;;;;30.73;16.00;;;5.50;85.10;;;;;;4964038;28;20022;-79
2021/12/14 13:38:11;;;;;;;30.15;15.43;;;5.50;82.80;;;;;;4982529;28;20086;-78
2021/12/14 13:40:41;;;;;;;60.53;33.38;;;5.60;83.70;;;;;;4963725;28;20066;-81
2021/12/14 13:43:09;;;;;;;64.82;37.25;;;5.60;85.50;;;;;;4982506;28;20038;-78
2021/12/14 13:45:39;;;;;;;66.28;36.97;;;5.60;87.10;;;;;;4981995;28;20087;-78
2021/12/14 13:48:07;;;;;;;86.00;45.72;;;5.70;86.90;;;;;;4979103;28;21144;-77
2021/12/14 13:50:38;;;;;;;77.45;41.63;;;5.80;87.50;;;;;;4969120;28;20313;-79